sensor_id;sensor_type;location;lat;lon;timestamp;P1;durP1;ratioP1;P2;durP2;ratioP2
26698;SDS011;14313;50.892;13.756;2022-10-15T06:00:40;4.28;;;3.50;;
26698;SDS011;14313;50.892;13.756;2022-10-15T06:03:08;4.38;;;3.63;;
26698;SDS011;14313;50.892;13.756;2022-10-15T06:05:36;4.13;;;3.15;;
26698;SDS011;14313;50.892;13.756;2022-10-15T06:08:01;2.97;;;2.50;;
26698;SDS011;14313;50.892;13.756;2022-10-15T06:10:26;2.45;;;1.95;;
26698;SDS011;14313;50.892;13.756;2022-10-15T06:12:52;3.67;;;1.70;;
26698;SDS011;14313;50.892;13.756;2022-10-15T06:15:17;3.83;;;1.30;;
26698;SDS011;14313;50.892;13.756;2022-10-15T06:17:43;1.55;;;1.45;;
26698;SDS011;14313;50.892;13.756;2022-10-15T06:20:09;7.07;;;1.50;;
26698;SDS011;14313;50.892;13.756;2022-10-15T06:22:36;0.90;;;0.90;;
26698;SDS011;14313;50.892;13.756;2022-10-15T06:25:01;1.40;;;1.30;;
26698;SDS011;14313;50.892;13.756;2022-10-15T06:27:27;2.67;;;1.27;;
26698;SDS011;14313;50.892;13.756;2022-10-15T06:29:53;1.33;;;1.23;;
26698;SDS011;14313;50.892;13.756;2022-10-15T06:32:18;0.70;;;0.70;;
26698;SDS011;14313;50.892;13.756;2022-10-15T06:34:43;2.42;;;1.90;;
26698;SDS011;14313;50.892;13.756;2022-10-15T06:37:09;2.22;;;2.03;;
26698;SDS011;14313;50.892;13.756;2022-10-15T06:39:34;0.80;;;0.80;;
26698;SDS011;14313;50.892;13.756;2022-10-15T06:42:00;0.95;;;0.80;;
26698;SDS011;14313;50.892;13.756;2022-10-15T06:44:36;1.27;;;0.80;;
26698;SDS011;14313;50.892;13.756;2022-10-15T06:47:02;0.80;;;0.70;;
26698;SDS011;14313;50.892;13.756;2022-10-15T06:49:27;0.50;;;0.50;;
26698;SDS011;14313;50.892;13.756;2022-10-15T06:51:53;0.68;;;0.55;;
26698;SDS011;14313;50.892;13.756;2022-10-15T06:54:18;0.80;;;0.80;;
26698;SDS011;14313;50.892;13.756;2022-10-15T06:56:43;0.50;;;0.50;;
26698;SDS011;14313;50.892;13.756;2022-10-15T06:59:08;1.20;;;0.60;;
26698;SDS011;14313;50.892;13.756;2022-10-15T07:01:34;0.65;;;0.65;;
26698;SDS011;14313;50.892;13.756;2022-10-15T07:03:59;0.30;;;0.30;;
26698;SDS011;14313;50.892;13.756;2022-10-15T07:06:25;2.05;;;0.40;;
26698;SDS011;14313;50.892;13.756;2022-10-15T07:08:50;0.40;;;0.40;;
26698;SDS011;14313;50.892;13.756;2022-10-15T07:11:16;0.30;;;0.30;;
26698;SDS011;14313;50.892;13.756;2022-10-15T07:13:42;0.50;;;0.40;;
26698;SDS011;14313;50.892;13.756;2022-10-15T07:16:08;2.10;;;0.52;;
26698;SDS011;14313;50.892;13.756;2022-10-15T07:18:36;0.70;;;0.63;;
26698;SDS011;14313;50.892;13.756;2022-10-15T07:21:02;0.30;;;0.30;;
26698;SDS011;14313;50.892;13.756;2022-10-15T07:23:29;1.05;;;0.40;;
26698;SDS011;14313;50.892;13.756;2022-10-15T07:25:57;0.50;;;0.50;;
26698;SDS011;14313;50.892;13.756;2022-10-15T07:28:23;0.55;;;0.55;;
26698;SDS011;14313;50.892;13.756;2022-10-15T07:30:49;0.40;;;0.40;;
26698;SDS011;14313;50.892;13.756;2022-10-15T07:33:14;0.80;;;0.40;;
26698;SDS011;14313;50.892;13.756;2022-10-15T07:35:49;0.70;;;0.70;;
26698;SDS011;14313;50.892;13.756;2022-10-15T07:38:14;0.47;;;0.47;;
26698;SDS011;14313;50.892;13.756;2022-10-15T07:40:39;3.13;;;0.60;;
26698;SDS011;14313;50.892;13.756;2022-10-15T07:43:05;1.77;;;0.40;;
26698;SDS011;14313;50.892;13.756;2022-10-15T07:45:31;1.00;;;0.50;;
26698;SDS011;14313;50.892;13.756;2022-10-15T07:47:56;0.98;;;0.60;;
26698;SDS011;14313;50.892;13.756;2022-10-15T07:50:21;1.02;;;0.93;;
26698;SDS011;14313;50.892;13.756;2022-10-15T07:52:47;0.60;;;0.60;;
26698;SDS011;14313;50.892;13.756;2022-10-15T07:55:12;0.60;;;0.60;;
26698;SDS011;14313;50.892;13.756;2022-10-15T07:57:37;0.47;;;0.43;;
26698;SDS011;14313;50.892;13.756;2022-10-15T08:00:03;4.35;;;0.70;;
26698;SDS011;14313;50.892;13.756;2022-10-15T08:02:37;3.55;;;0.68;;
26698;SDS011;14313;50.892;13.756;2022-10-15T08:05:03;4.18;;;0.98;;
26698;SDS011;14313;50.892;13.756;2022-10-15T08:07:28;1.33;;;1.13;;
26698;SDS011;14313;50.892;13.756;2022-10-15T08:09:53;2.72;;;1.02;;
26698;SDS011;14313;50.892;13.756;2022-10-15T08:12:19;6.85;;;1.10;;
26698;SDS011;14313;50.892;13.756;2022-10-15T08:14:45;1.73;;;0.70;;
26698;SDS011;14313;50.892;13.756;2022-10-15T08:17:10;0.60;;;0.60;;
26698;SDS011;14313;50.892;13.756;2022-10-15T08:19:36;1.50;;;0.50;;
26698;SDS011;14313;50.892;13.756;2022-10-15T08:22:01;2.10;;;0.40;;
26698;SDS011;14313;50.892;13.756;2022-10-15T08:24:27;0.90;;;0.65;;
26698;SDS011;14313;50.892;13.756;2022-10-15T08:26:54;0.50;;;0.50;;
26698;SDS011;14313;50.892;13.756;2022-10-15T08:29:21;0.30;;;0.30;;
26698;SDS011;14313;50.892;13.756;2022-10-15T08:31:46;0.50;;;0.47;;
26698;SDS011;14313;50.892;13.756;2022-10-15T08:34:12;2.58;;;0.40;;
26698;SDS011;14313;50.892;13.756;2022-10-15T08:36:37;0.85;;;0.45;;
26698;SDS011;14313;50.892;13.756;2022-10-15T08:39:02;0.70;;;0.47;;
26698;SDS011;14313;50.892;13.756;2022-10-15T08:41:52;2.17;;;0.45;;
26698;SDS011;14313;50.892;13.756;2022-10-15T08:44:25;1.00;;;0.70;;
26698;SDS011;14313;50.892;13.756;2022-10-15T08:46:55;0.90;;;0.80;;
26698;SDS011;14313;50.892;13.756;2022-10-15T08:49:45;3.83;;;2.40;;
26698;SDS011;14313;50.892;13.756;2022-10-15T08:52:25;0.90;;;0.90;;
26698;SDS011;14313;50.892;13.756;2022-10-15T08:55:04;1.38;;;0.70;;
26698;SDS011;14313;50.892;13.756;2022-10-15T08:57:42;3.45;;;1.52;;
26698;SDS011;14313;50.892;13.756;2022-10-15T09:03:08;0.80;;;0.75;;
26698;SDS011;14313;50.892;13.756;2022-10-15T09:14:36;0.80;;;0.70;;
26698;SDS011;14313;50.892;13.756;2022-10-15T09:17:13;1.05;;;1.00;;
26698;SDS011;14313;50.892;13.756;2022-10-15T09:19:44;2.15;;;1.95;;
26698;SDS011;14313;50.892;13.756;2022-10-15T09:22:13;1.10;;;1.00;;
26698;SDS011;14313;50.892;13.756;2022-10-15T09:24:43;3.08;;;1.40;;
26698;SDS011;14313;50.892;13.756;2022-10-15T09:27:14;4.22;;;1.83;;
26698;SDS011;14313;50.892;13.756;2022-10-15T09:32:50;2.45;;;2.10;;
26698;SDS011;14313;50.892;13.756;2022-10-15T09:35:26;1.13;;;1.00;;
26698;SDS011;14313;50.892;13.756;2022-10-15T09:38:00;3.30;;;0.70;;
26698;SDS011;14313;50.892;13.756;2022-10-15T09:41:08;22.05;;;18.05;;
26698;SDS011;14313;50.892;13.756;2022-10-15T09:43:45;4.40;;;4.10;;
26698;SDS011;14313;50.892;13.756;2022-10-15T09:46:13;2.00;;;1.90;;
26698;SDS011;14313;50.892;13.756;2022-10-15T09:48:58;1.98;;;0.80;;
26698;SDS011;14313;50.892;13.756;2022-10-15T09:57:09;1.50;;;1.08;;
26698;SDS011;14313;50.892;13.756;2022-10-15T09:59:50;2.83;;;1.98;;
26698;SDS011;14313;50.892;13.756;2022-10-15T10:02:17;1.35;;;0.88;;
26698;SDS011;14313;50.892;13.756;2022-10-15T10:04:43;2.97;;;0.85;;
26698;SDS011;14313;50.892;13.756;2022-10-15T10:07:22;0.65;;;0.40;;
26698;SDS011;14313;50.892;13.756;2022-10-15T10:09:55;2.10;;;1.33;;
26698;SDS011;14313;50.892;13.756;2022-10-15T10:12:24;2.42;;;1.15;;
26698;SDS011;14313;50.892;13.756;2022-10-15T10:17:31;0.73;;;0.70;;
26698;SDS011;14313;50.892;13.756;2022-10-15T10:20:14;1.13;;;0.50;;
26698;SDS011;14313;50.892;13.756;2022-10-15T10:25:21;1.10;;;0.40;;
26698;SDS011;14313;50.892;13.756;2022-10-15T10:27:47;0.80;;;0.40;;
26698;SDS011;14313;50.892;13.756;2022-10-15T10:30:12;0.80;;;0.50;;
26698;SDS011;14313;50.892;13.756;2022-10-15T10:32:38;3.85;;;0.40;;
26698;SDS011;14313;50.892;13.756;2022-10-15T10:35:05;1.50;;;0.40;;
26698;SDS011;14313;50.892;13.756;2022-10-15T10:37:43;1.77;;;0.40;;
26698;SDS011;14313;50.892;13.756;2022-10-15T10:40:27;0.40;;;0.40;;
26698;SDS011;14313;50.892;13.756;2022-10-15T10:43:17;2.42;;;2.22;;
26698;SDS011;14313;50.892;13.756;2022-10-15T10:45:52;1.00;;;0.77;;
26698;SDS011;14313;50.892;13.756;2022-10-15T10:48:35;1.48;;;0.52;;
26698;SDS011;14313;50.892;13.756;2022-10-15T10:51:08;1.95;;;0.20;;
26698;SDS011;14313;50.892;13.756;2022-10-15T10:56:27;1.10;;;0.50;;
26698;SDS011;14313;50.892;13.756;2022-10-15T11:02:01;3.38;;;0.70;;
26698;SDS011;14313;50.892;13.756;2022-10-15T11:04:31;0.93;;;0.50;;
26698;SDS011;14313;50.892;13.756;2022-10-15T11:21:26;1.27;;;0.40;;
26698;SDS011;14313;50.892;13.756;2022-10-15T11:23:50;0.70;;;0.65;;
26698;SDS011;14313;50.892;13.756;2022-10-15T11:32:03;0.40;;;0.40;;
26698;SDS011;14313;50.892;13.756;2022-10-15T11:46:12;1.70;;;0.50;;
26698;SDS011;14313;50.892;13.756;2022-10-15T11:56:59;2.70;;;0.50;;
26698;SDS011;14313;50.892;13.756;2022-10-15T12:02:01;1.67;;;0.50;;
26698;SDS011;14313;50.892;13.756;2022-10-15T12:04:37;0.65;;;0.40;;
26698;SDS011;14313;50.892;13.756;2022-10-15T12:07:07;0.85;;;0.47;;
26698;SDS011;14313;50.892;13.756;2022-10-15T12:09:40;1.70;;;0.45;;
26698;SDS011;14313;50.892;13.756;2022-10-15T12:14:52;1.95;;;1.00;;
26698;SDS011;14313;50.892;13.756;2022-10-15T12:18:12;3.28;;;2.65;;
26698;SDS011;14313;50.892;13.756;2022-10-15T12:20:23;1.77;;;0.50;;
26698;SDS011;14313;50.892;13.756;2022-10-15T12:30:29;0.70;;;0.30;;
26698;SDS011;14313;50.892;13.756;2022-10-15T12:32:58;1.98;;;0.20;;
26698;SDS011;14313;50.892;13.756;2022-10-15T12:35:30;0.22;;;0.20;;
26698;SDS011;14313;50.892;13.756;2022-10-15T12:38:19;0.82;;;0.20;;
26698;SDS011;14313;50.892;13.756;2022-10-15T12:40:46;0.82;;;0.20;;
26698;SDS011;14313;50.892;13.756;2022-10-15T12:43:21;2.22;;;0.32;;
26698;SDS011;14313;50.892;13.756;2022-10-15T12:45:54;0.63;;;0.20;;
26698;SDS011;14313;50.892;13.756;2022-10-15T12:48:32;1.75;;;0.10;;
26698;SDS011;14313;50.892;13.756;2022-10-15T12:53:46;0.43;;;0.10;;
26698;SDS011;14313;50.892;13.756;2022-10-15T13:03:42;0.20;;;0.10;;
26698;SDS011;14313;50.892;13.756;2022-10-15T13:09:31;0.10;;;0.10;;
26698;SDS011;14313;50.892;13.756;2022-10-15T13:16:33;0.85;;;0.20;;
26698;SDS011;14313;50.892;13.756;2022-10-15T13:18:59;1.75;;;0.10;;
26698;SDS011;14313;50.892;13.756;2022-10-15T13:21:50;0.10;;;0.10;;
26698;SDS011;14313;50.892;13.756;2022-10-15T13:24:18;0.08;;;0.00;;
26698;SDS011;14313;50.892;13.756;2022-10-15T13:26:45;0.70;;;0.20;;
26698;SDS011;14313;50.892;13.756;2022-10-15T13:29:15;0.20;;;0.10;;
26698;SDS011;14313;50.892;13.756;2022-10-15T13:31:42;0.82;;;0.30;;
26698;SDS011;14313;50.892;13.756;2022-10-15T13:36:59;0.10;;;0.10;;
26698;SDS011;14313;50.892;13.756;2022-10-15T13:39:35;0.20;;;0.20;;
26698;SDS011;14313;50.892;13.756;2022-10-15T13:42:13;0.25;;;0.10;;
26698;SDS011;14313;50.892;13.756;2022-10-15T13:44:40;0.55;;;0.08;;
26698;SDS011;14313;50.892;13.756;2022-10-15T13:47:21;0.10;;;0.10;;
26698;SDS011;14313;50.892;13.756;2022-10-15T13:49:49;2.30;;;0.20;;
26698;SDS011;14313;50.892;13.756;2022-10-15T13:52:15;0.30;;;0.30;;
26698;SDS011;14313;50.892;13.756;2022-10-15T13:54:40;0.63;;;0.20;;
26698;SDS011;14313;50.892;13.756;2022-10-15T13:57:09;0.10;;;0.10;;
26698;SDS011;14313;50.892;13.756;2022-10-15T13:59:42;0.28;;;0.10;;
26698;SDS011;14313;50.892;13.756;2022-10-15T14:02:09;0.43;;;0.05;;
26698;SDS011;14313;50.892;13.756;2022-10-15T14:04:36;1.65;;;0.10;;
26698;SDS011;14313;50.892;13.756;2022-10-15T14:07:03;0.17;;;0.10;;
26698;SDS011;14313;50.892;13.756;2022-10-15T14:09:44;1.85;;;0.10;;
26698;SDS011;14313;50.892;13.756;2022-10-15T14:12:10;1.15;;;0.10;;
26698;SDS011;14313;50.892;13.756;2022-10-15T14:14:39;1.65;;;0.20;;
26698;SDS011;14313;50.892;13.756;2022-10-15T14:19:44;0.28;;;0.20;;
26698;SDS011;14313;50.892;13.756;2022-10-15T14:22:19;0.10;;;0.10;;
26698;SDS011;14313;50.892;13.756;2022-10-15T14:24:49;0.20;;;0.10;;
26698;SDS011;14313;50.892;13.756;2022-10-15T14:27:19;1.15;;;0.10;;
26698;SDS011;14313;50.892;13.756;2022-10-15T14:29:48;0.10;;;0.10;;
26698;SDS011;14313;50.892;13.756;2022-10-15T14:32:17;0.15;;;0.15;;
26698;SDS011;14313;50.892;13.756;2022-10-15T14:34:54;0.70;;;0.50;;
26698;SDS011;14313;50.892;13.756;2022-10-15T14:37:31;0.50;;;0.40;;
26698;SDS011;14313;50.892;13.756;2022-10-15T14:42:33;0.73;;;0.10;;
26698;SDS011;14313;50.892;13.756;2022-10-15T14:47:37;0.30;;;0.20;;
26698;SDS011;14313;50.892;13.756;2022-10-15T14:50:03;0.22;;;0.22;;
26698;SDS011;14313;50.892;13.756;2022-10-15T14:52:30;2.22;;;1.70;;
26698;SDS011;14313;50.892;13.756;2022-10-15T14:55:06;0.20;;;0.20;;
26698;SDS011;14313;50.892;13.756;2022-10-15T14:57:38;1.75;;;0.20;;
26698;SDS011;14313;50.892;13.756;2022-10-15T15:00:21;1.30;;;0.20;;
26698;SDS011;14313;50.892;13.756;2022-10-15T15:02:48;0.47;;;0.40;;
26698;SDS011;14313;50.892;13.756;2022-10-15T15:05:21;1.90;;;0.30;;
26698;SDS011;14313;50.892;13.756;2022-10-15T15:07:48;0.30;;;0.30;;
26698;SDS011;14313;50.892;13.756;2022-10-15T15:10:13;2.75;;;2.38;;
26698;SDS011;14313;50.892;13.756;2022-10-15T15:12:39;2.10;;;1.63;;
26698;SDS011;14313;50.892;13.756;2022-10-15T15:15:16;0.32;;;0.32;;
26698;SDS011;14313;50.892;13.756;2022-10-15T15:17:43;1.10;;;0.65;;
26698;SDS011;14313;50.892;13.756;2022-10-15T15:20:10;1.17;;;0.80;;
26698;SDS011;14313;50.892;13.756;2022-10-15T15:22:36;1.80;;;1.42;;
26698;SDS011;14313;50.892;13.756;2022-10-15T15:25:06;1.48;;;0.60;;
26698;SDS011;14313;50.892;13.756;2022-10-15T15:27:39;0.55;;;0.40;;
26698;SDS011;14313;50.892;13.756;2022-10-15T15:30:06;0.55;;;0.40;;
26698;SDS011;14313;50.892;13.756;2022-10-15T15:32:37;1.35;;;0.60;;
26698;SDS011;14313;50.892;13.756;2022-10-15T15:35:04;2.47;;;0.90;;
26698;SDS011;14313;50.892;13.756;2022-10-15T15:37:56;2.28;;;1.42;;
26698;SDS011;14313;50.892;13.756;2022-10-15T15:40:21;3.00;;;1.25;;
26698;SDS011;14313;50.892;13.756;2022-10-15T15:42:47;4.47;;;2.80;;
26698;SDS011;14313;50.892;13.756;2022-10-15T15:45:21;1.30;;;1.02;;
26698;SDS011;14313;50.892;13.756;2022-10-15T15:47:48;4.20;;;2.78;;
26698;SDS011;14313;50.892;13.756;2022-10-15T15:50:15;13.57;;;7.50;;
26698;SDS011;14313;50.892;13.756;2022-10-15T15:52:42;19.20;;;9.65;;
26698;SDS011;14313;50.892;13.756;2022-10-15T15:55:08;23.63;;;14.00;;
26698;SDS011;14313;50.892;13.756;2022-10-15T15:57:34;12.30;;;6.88;;
26698;SDS011;14313;50.892;13.756;2022-10-15T15:59:59;5.13;;;3.25;;
26698;SDS011;14313;50.892;13.756;2022-10-15T16:02:25;5.05;;;2.33;;
26698;SDS011;14313;50.892;13.756;2022-10-15T16:04:50;4.03;;;1.60;;
26698;SDS011;14313;50.892;13.756;2022-10-15T16:07:15;1.90;;;0.70;;
26698;SDS011;14313;50.892;13.756;2022-10-15T16:09:41;6.35;;;1.38;;
26698;SDS011;14313;50.892;13.756;2022-10-15T16:12:06;9.05;;;4.95;;
26698;SDS011;14313;50.892;13.756;2022-10-15T16:14:32;2.53;;;2.08;;
26698;SDS011;14313;50.892;13.756;2022-10-15T16:16:57;2.42;;;0.40;;
26698;SDS011;14313;50.892;13.756;2022-10-15T16:19:23;2.40;;;0.20;;
26698;SDS011;14313;50.892;13.756;2022-10-15T16:21:48;0.28;;;0.28;;
26698;SDS011;14313;50.892;13.756;2022-10-15T16:24:14;0.52;;;0.30;;
26698;SDS011;14313;50.892;13.756;2022-10-15T16:26:39;5.55;;;5.05;;
26698;SDS011;14313;50.892;13.756;2022-10-15T16:29:05;5.43;;;4.30;;
26698;SDS011;14313;50.892;13.756;2022-10-15T16:31:30;32.15;;;17.45;;
26698;SDS011;14313;50.892;13.756;2022-10-15T16:34:00;17.48;;;10.40;;
26698;SDS011;14313;50.892;13.756;2022-10-15T16:36:26;12.07;;;6.63;;
26698;SDS011;14313;50.892;13.756;2022-10-15T16:38:51;6.40;;;3.97;;
26698;SDS011;14313;50.892;13.756;2022-10-15T16:41:18;4.05;;;1.55;;
26698;SDS011;14313;50.892;13.756;2022-10-15T16:43:43;9.75;;;4.60;;
26698;SDS011;14313;50.892;13.756;2022-10-15T16:46:09;11.85;;;4.53;;
26698;SDS011;14313;50.892;13.756;2022-10-15T16:48:34;14.38;;;8.20;;
26698;SDS011;14313;50.892;13.756;2022-10-15T16:51:00;5.93;;;3.15;;
26698;SDS011;14313;50.892;13.756;2022-10-15T16:53:37;41.97;;;22.20;;
26698;SDS011;14313;50.892;13.756;2022-10-15T16:56:05;18.65;;;9.57;;
26698;SDS011;14313;50.892;13.756;2022-10-15T16:58:37;17.35;;;9.35;;
26698;SDS011;14313;50.892;13.756;2022-10-15T17:01:04;47.67;;;25.23;;
26698;SDS011;14313;50.892;13.756;2022-10-15T17:03:32;42.55;;;21.40;;
26698;SDS011;14313;50.892;13.756;2022-10-15T17:05:59;45.30;;;22.60;;
26698;SDS011;14313;50.892;13.756;2022-10-15T17:08:27;43.78;;;22.20;;
26698;SDS011;14313;50.892;13.756;2022-10-15T17:10:58;28.33;;;15.77;;
26698;SDS011;14313;50.892;13.756;2022-10-15T17:13:23;28.88;;;12.20;;
26698;SDS011;14313;50.892;13.756;2022-10-15T17:15:49;45.28;;;18.17;;
26698;SDS011;14313;50.892;13.756;2022-10-15T17:18:14;26.35;;;13.50;;
26698;SDS011;14313;50.892;13.756;2022-10-15T17:20:43;23.27;;;11.48;;
26698;SDS011;14313;50.892;13.756;2022-10-15T17:23:09;24.98;;;14.10;;
26698;SDS011;14313;50.892;13.756;2022-10-15T17:25:35;8.85;;;5.45;;
26698;SDS011;14313;50.892;13.756;2022-10-15T17:28:00;15.05;;;6.30;;
26698;SDS011;14313;50.892;13.756;2022-10-15T17:30:26;14.82;;;8.38;;
26698;SDS011;14313;50.892;13.756;2022-10-15T17:32:51;15.10;;;11.68;;
26698;SDS011;14313;50.892;13.756;2022-10-15T17:35:16;9.15;;;6.25;;
26698;SDS011;14313;50.892;13.756;2022-10-15T17:37:42;2.80;;;2.45;;
26698;SDS011;14313;50.892;13.756;2022-10-15T17:40:08;2.70;;;2.50;;
26698;SDS011;14313;50.892;13.756;2022-10-15T17:42:34;8.07;;;4.85;;
26698;SDS011;14313;50.892;13.756;2022-10-15T17:45:00;9.07;;;4.57;;
26698;SDS011;14313;50.892;13.756;2022-10-15T17:47:26;10.82;;;5.13;;
26698;SDS011;14313;50.892;13.756;2022-10-15T17:49:52;11.25;;;6.47;;
26698;SDS011;14313;50.892;13.756;2022-10-15T17:52:17;4.63;;;0.73;;
26698;SDS011;14313;50.892;13.756;2022-10-15T17:54:42;2.83;;;1.10;;
26698;SDS011;14313;50.892;13.756;2022-10-15T17:57:09;2.72;;;1.40;;
26698;SDS011;14313;50.892;13.756;2022-10-15T17:59:34;2.15;;;1.52;;
26698;SDS011;14313;50.892;13.756;2022-10-15T18:01:59;4.57;;;1.70;;
26698;SDS011;14313;50.892;13.756;2022-10-15T18:04:29;9.55;;;3.60;;
26698;SDS011;14313;50.892;13.756;2022-10-15T18:06:54;7.97;;;3.78;;
26698;SDS011;14313;50.892;13.756;2022-10-15T18:09:25;8.57;;;4.85;;
26698;SDS011;14313;50.892;13.756;2022-10-15T18:11:53;7.47;;;5.60;;
26698;SDS011;14313;50.892;13.756;2022-10-15T18:14:19;4.43;;;4.00;;
26698;SDS011;14313;50.892;13.756;2022-10-15T18:16:44;7.13;;;4.50;;
26698;SDS011;14313;50.892;13.756;2022-10-15T18:19:09;6.03;;;3.72;;
26698;SDS011;14313;50.892;13.756;2022-10-15T18:21:35;4.53;;;3.40;;
26698;SDS011;14313;50.892;13.756;2022-10-15T18:24:00;4.43;;;3.63;;
26698;SDS011;14313;50.892;13.756;2022-10-15T18:26:26;9.32;;;5.13;;
26698;SDS011;14313;50.892;13.756;2022-10-15T18:28:51;13.27;;;7.20;;
26698;SDS011;14313;50.892;13.756;2022-10-15T18:31:18;7.13;;;3.85;;
26698;SDS011;14313;50.892;13.756;2022-10-15T18:33:45;7.22;;;3.83;;
26698;SDS011;14313;50.892;13.756;2022-10-15T18:38:41;2.28;;;1.52;;
26698;SDS011;14313;50.892;13.756;2022-10-15T18:41:26;4.18;;;1.50;;
26698;SDS011;14313;50.892;13.756;2022-10-15T18:43:54;2.40;;;1.73;;
26698;SDS011;14313;50.892;13.756;2022-10-15T18:46:27;4.50;;;2.35;;
26698;SDS011;14313;50.892;13.756;2022-10-15T18:48:55;9.82;;;2.72;;
26698;SDS011;14313;50.892;13.756;2022-10-15T18:51:24;6.50;;;4.47;;
26698;SDS011;14313;50.892;13.756;2022-10-15T18:53:50;14.10;;;6.43;;
26698;SDS011;14313;50.892;13.756;2022-10-15T18:56:16;13.20;;;8.10;;
26698;SDS011;14313;50.892;13.756;2022-10-15T18:58:41;11.25;;;7.78;;
26698;SDS011;14313;50.892;13.756;2022-10-15T19:03:44;14.73;;;10.50;;
26698;SDS011;14313;50.892;13.756;2022-10-15T19:06:13;18.83;;;9.13;;
26698;SDS011;14313;50.892;13.756;2022-10-15T19:08:39;10.98;;;5.90;;
26698;SDS011;14313;50.892;13.756;2022-10-15T19:11:05;5.88;;;4.47;;
26698;SDS011;14313;50.892;13.756;2022-10-15T19:13:32;10.02;;;5.10;;
26698;SDS011;14313;50.892;13.756;2022-10-15T19:15:59;6.05;;;4.40;;
26698;SDS011;14313;50.892;13.756;2022-10-15T19:18:25;6.30;;;4.25;;
26698;SDS011;14313;50.892;13.756;2022-10-15T19:20:51;5.70;;;4.50;;
26698;SDS011;14313;50.892;13.756;2022-10-15T19:23:16;5.82;;;4.32;;
26698;SDS011;14313;50.892;13.756;2022-10-15T19:25:41;5.30;;;4.78;;
26698;SDS011;14313;50.892;13.756;2022-10-15T19:28:07;6.10;;;5.00;;
26698;SDS011;14313;50.892;13.756;2022-10-15T19:30:32;5.95;;;4.60;;
26698;SDS011;14313;50.892;13.756;2022-10-15T19:32:58;5.93;;;4.70;;
26698;SDS011;14313;50.892;13.756;2022-10-15T19:35:23;6.15;;;5.50;;
26698;SDS011;14313;50.892;13.756;2022-10-15T19:37:51;5.97;;;4.97;;
26698;SDS011;14313;50.892;13.756;2022-10-15T19:40:16;7.22;;;5.40;;
26698;SDS011;14313;50.892;13.756;2022-10-15T19:42:41;7.68;;;5.75;;
26698;SDS011;14313;50.892;13.756;2022-10-15T19:45:07;7.82;;;5.85;;
26698;SDS011;14313;50.892;13.756;2022-10-15T19:47:32;7.97;;;5.90;;
26698;SDS011;14313;50.892;13.756;2022-10-15T19:49:58;6.68;;;5.40;;
26698;SDS011;14313;50.892;13.756;2022-10-15T19:52:23;8.98;;;5.15;;
26698;SDS011;14313;50.892;13.756;2022-10-15T19:54:49;5.47;;;4.18;;
26698;SDS011;14313;50.892;13.756;2022-10-15T19:57:15;5.10;;;4.25;;
26698;SDS011;14313;50.892;13.756;2022-10-15T19:59:40;6.82;;;4.40;;
26698;SDS011;14313;50.892;13.756;2022-10-15T20:02:08;6.97;;;4.43;;
26698;SDS011;14313;50.892;13.756;2022-10-15T20:04:35;4.57;;;4.18;;
26698;SDS011;14313;50.892;13.756;2022-10-15T20:07:00;4.13;;;3.83;;
26698;SDS011;14313;50.892;13.756;2022-10-15T20:09:26;6.82;;;4.50;;
26698;SDS011;14313;50.892;13.756;2022-10-15T20:11:51;4.25;;;3.85;;
26698;SDS011;14313;50.892;13.756;2022-10-15T20:14:16;3.83;;;3.20;;
26698;SDS011;14313;50.892;13.756;2022-10-15T20:16:42;7.03;;;4.03;;
26698;SDS011;14313;50.892;13.756;2022-10-15T20:19:08;6.10;;;3.53;;
26698;SDS011;14313;50.892;13.756;2022-10-15T20:21:34;5.97;;;3.70;;
26698;SDS011;14313;50.892;13.756;2022-10-15T20:23:59;3.80;;;3.45;;
26698;SDS011;14313;50.892;13.756;2022-10-15T20:26:28;3.50;;;3.20;;
26698;SDS011;14313;50.892;13.756;2022-10-15T20:28:54;3.53;;;3.22;;
26698;SDS011;14313;50.892;13.756;2022-10-15T20:31:20;4.03;;;3.00;;
26698;SDS011;14313;50.892;13.756;2022-10-15T20:33:48;4.35;;;3.40;;
26698;SDS011;14313;50.892;13.756;2022-10-15T20:36:15;4.93;;;3.60;;
26698;SDS011;14313;50.892;13.756;2022-10-15T20:38:41;6.53;;;3.90;;
26698;SDS011;14313;50.892;13.756;2022-10-15T20:41:15;4.47;;;3.78;;
26698;SDS011;14313;50.892;13.756;2022-10-15T20:43:41;5.60;;;4.07;;
26698;SDS011;14313;50.892;13.756;2022-10-15T20:46:10;4.60;;;3.97;;
26698;SDS011;14313;50.892;13.756;2022-10-15T20:48:38;5.03;;;3.80;;
26698;SDS011;14313;50.892;13.756;2022-10-15T20:51:08;4.22;;;3.85;;
26698;SDS011;14313;50.892;13.756;2022-10-15T20:53:35;6.55;;;4.18;;
26698;SDS011;14313;50.892;13.756;2022-10-15T20:56:01;4.25;;;3.88;;
26698;SDS011;14313;50.892;13.756;2022-10-15T20:58:27;3.83;;;3.47;;
26698;SDS011;14313;50.892;13.756;2022-10-15T21:00:53;4.00;;;3.45;;
